createdAt,value
2018-11-14T00:00:24.669Z,8.03
2018-11-14T00:02:52.841Z,7.57
2018-11-14T00:05:21.033Z,7.73
2018-11-14T00:07:49.161Z,7.40
2018-11-14T00:10:18.030Z,7.13
2018-11-14T00:12:45.753Z,8.60
2018-11-14T00:15:16.280Z,9.03
2018-11-14T00:17:45.565Z,7.77
2018-11-14T00:20:14.093Z,7.97
2018-11-14T00:22:43.261Z,7.30
2018-11-14T00:25:11.399Z,5.80
2018-11-14T00:27:39.605Z,8.20
2018-11-14T00:30:14.732Z,7.30
2018-11-14T00:32:43.222Z,7.67
2018-11-14T00:35:11.906Z,6.97
2018-11-14T00:37:40.405Z,7.60
2018-11-14T00:40:10.181Z,7.17
2018-11-14T00:42:38.549Z,7.97
2018-11-14T00:45:08.502Z,8.10
2018-11-14T00:47:36.705Z,8.03
2018-11-14T00:50:05.413Z,8.57
2018-11-14T00:52:33.612Z,7.23
2018-11-14T00:55:01.786Z,8.80
2018-11-14T00:57:30.045Z,9.43
2018-11-14T00:59:58.263Z,9.40
2018-11-14T01:02:26.449Z,7.67
2018-11-14T01:04:54.649Z,8.43
2018-11-14T01:07:22.855Z,8.60
2018-11-14T01:09:51.032Z,7.27
2018-11-14T01:12:19.182Z,6.67
2018-11-14T01:14:47.349Z,6.17
2018-11-14T01:17:15.571Z,6.83
2018-11-14T01:19:43.697Z,8.50
2018-11-14T01:22:11.892Z,7.50
2018-11-14T01:24:40.093Z,7.77
2018-11-14T01:27:08.337Z,8.20
2018-11-14T01:29:36.409Z,7.43
2018-11-14T01:32:04.853Z,8.70
2018-11-14T01:34:32.997Z,7.73
2018-11-14T01:37:01.196Z,8.63
2018-11-14T01:39:29.366Z,8.53
2018-11-14T01:41:57.533Z,8.10
2018-11-14T01:44:25.701Z,9.67
2018-11-14T01:46:53.866Z,9.17
2018-11-14T01:49:21.985Z,7.93
2018-11-14T01:51:50.736Z,9.47
2018-11-14T01:54:18.893Z,8.57
2018-11-14T01:56:47.058Z,9.45
2018-11-14T01:59:15.205Z,9.90
2018-11-14T02:01:43.373Z,8.37
2018-11-14T02:04:11.550Z,8.60
2018-11-14T02:06:39.725Z,9.30
2018-11-14T02:09:08.829Z,9.80
2018-11-14T02:11:37.055Z,9.77
2018-11-14T02:14:05.783Z,10.90
2018-11-14T02:16:34.206Z,9.20
2018-11-14T02:19:02.377Z,7.17
2018-11-14T02:21:30.518Z,6.73
2018-11-14T02:23:58.675Z,6.47
2018-11-14T02:26:26.841Z,6.70
2018-11-14T02:28:55.026Z,6.23
2018-11-14T02:31:23.199Z,5.83
2018-11-14T02:33:51.325Z,7.57
2018-11-14T02:36:19.677Z,8.05
2018-11-14T02:38:47.820Z,9.00
2018-11-14T02:41:15.954Z,7.87
2018-11-14T02:43:44.109Z,8.10
2018-11-14T02:46:12.318Z,7.45
2018-11-14T02:48:40.490Z,8.10
2018-11-14T02:51:23.841Z,9.00
2018-11-14T02:53:52.001Z,10.00
2018-11-14T02:56:20.174Z,8.38
2018-11-14T02:58:48.301Z,9.63
2018-11-14T03:01:16.487Z,9.43
2018-11-14T03:03:44.728Z,11.35
2018-11-14T03:06:12.866Z,8.43
2018-11-14T03:08:41.065Z,8.40
2018-11-14T03:11:09.630Z,8.90
2018-11-14T03:13:38.010Z,10.93
2018-11-14T03:16:06.351Z,11.22
2018-11-14T03:18:34.549Z,12.98
2018-11-14T03:21:03.057Z,11.03
2018-11-14T03:23:31.257Z,11.33
2018-11-14T03:25:59.595Z,10.90
2018-11-14T03:28:27.846Z,9.30
2018-11-14T03:30:56.159Z,9.45
2018-11-14T03:33:24.370Z,8.93
2018-11-14T03:35:57.901Z,9.75
2018-11-14T03:38:26.095Z,10.30
2018-11-14T03:40:54.249Z,11.00
2018-11-14T03:43:22.406Z,20.57
2018-11-14T03:45:50.576Z,10.25
2018-11-14T03:48:18.765Z,12.10
2018-11-14T03:50:46.918Z,10.15
2018-11-14T03:53:16.001Z,10.23
2018-11-14T03:55:44.141Z,10.95
2018-11-14T03:58:12.435Z,11.40
2018-11-14T04:00:40.620Z,10.40
2018-11-14T04:03:08.753Z,10.58
2018-11-14T04:05:37.173Z,10.23
2018-11-14T04:08:05.900Z,9.88
2018-11-14T04:10:34.069Z,8.93
2018-11-14T04:13:02.285Z,10.58
2018-11-14T04:15:30.443Z,9.38
2018-11-14T04:17:58.658Z,11.87
2018-11-14T04:20:26.841Z,19.67
2018-11-14T04:22:55.041Z,11.22
2018-11-14T04:25:23.215Z,11.78
2018-11-14T04:27:51.402Z,11.88
2018-11-14T04:30:20.814Z,11.55
2018-11-14T04:32:49.046Z,19.73
2018-11-14T04:35:19.385Z,25.15
2018-11-14T04:37:47.585Z,16.00
2018-11-14T04:40:17.810Z,41.35
2018-11-14T04:42:46.045Z,22.75
2018-11-14T04:45:17.942Z,14.70
2018-11-14T04:47:46.156Z,13.53
2018-11-14T04:50:16.541Z,13.35
2018-11-14T04:52:45.673Z,14.58
2018-11-14T04:55:15.241Z,15.98
2018-11-14T04:57:43.927Z,15.15
2018-11-14T05:00:13.213Z,12.30
2018-11-14T05:02:42.358Z,9.40
2018-11-14T05:05:12.829Z,14.05
2018-11-14T05:07:42.094Z,11.05
2018-11-14T05:10:16.581Z,12.82
2018-11-14T05:12:45.010Z,12.80
2018-11-14T05:15:14.438Z,13.85
2018-11-14T05:17:42.907Z,13.70
2018-11-14T05:20:12.554Z,17.45
2018-11-14T05:22:40.913Z,14.03
2018-11-14T05:25:09.278Z,13.62
2018-11-14T05:27:37.501Z,11.18
2018-11-14T05:30:07.957Z,11.08
2018-11-14T05:32:36.110Z,12.18
2018-11-14T05:35:05.546Z,10.28
2018-11-14T05:37:33.752Z,15.05
2018-11-14T05:40:02.030Z,10.55
2018-11-14T05:42:30.086Z,10.15
2018-11-14T05:44:58.273Z,10.95
2018-11-14T05:47:26.415Z,10.98
2018-11-14T05:49:54.586Z,9.80
2018-11-14T05:52:22.789Z,10.18
2018-11-14T05:54:51.058Z,9.83
2018-11-14T05:57:20.053Z,9.10
2018-11-14T05:59:48.213Z,9.90
2018-11-14T06:02:16.389Z,9.00
2018-11-14T06:04:44.560Z,9.00
2018-11-14T06:07:12.813Z,9.00
2018-11-14T06:09:40.941Z,8.63
2018-11-14T06:12:09.122Z,8.88
2018-11-14T06:14:37.269Z,9.85
2018-11-14T06:17:05.501Z,9.93
2018-11-14T06:19:33.613Z,8.98
2018-11-14T06:22:01.974Z,10.45
2018-11-14T06:24:29.989Z,13.70
2018-11-14T06:26:58.194Z,20.30
2018-11-14T06:29:26.429Z,19.12
2018-11-14T06:31:54.646Z,18.02
2018-11-14T06:34:22.814Z,23.87
2018-11-14T06:36:50.970Z,16.02
2018-11-14T06:39:19.126Z,23.25
2018-11-14T06:41:47.628Z,18.07
2018-11-14T06:44:15.749Z,17.52
2018-11-14T06:46:43.883Z,21.68
2018-11-14T06:49:12.083Z,19.70
2018-11-14T06:51:40.350Z,17.10
2018-11-14T06:54:08.570Z,16.50
2018-11-14T06:56:36.845Z,17.98
2018-11-14T06:59:05.133Z,12.53
2018-11-14T07:01:33.302Z,13.15
2018-11-14T07:04:01.784Z,14.00
2018-11-14T07:06:29.975Z,20.88
2018-11-14T07:08:58.197Z,16.65
2018-11-14T07:11:26.397Z,19.20
2018-11-14T07:13:54.565Z,19.43
2018-11-14T07:16:22.833Z,13.90
2018-11-14T07:18:51.049Z,13.03
2018-11-14T07:21:19.217Z,13.78
2018-11-14T07:23:47.491Z,13.72
2018-11-14T07:26:15.634Z,14.07
2018-11-14T07:28:43.806Z,13.85
2018-11-14T07:31:11.978Z,15.93
2018-11-14T07:33:40.114Z,15.43
2018-11-14T07:36:08.355Z,14.37
2018-11-14T07:38:42.208Z,13.53
2018-11-14T07:41:16.047Z,16.20
2018-11-14T07:43:44.719Z,12.03
2018-11-14T07:46:13.493Z,11.80
2018-11-14T07:48:42.072Z,12.00
2018-11-14T07:51:10.448Z,11.10
2018-11-14T07:53:38.756Z,13.37
2018-11-14T07:56:07.202Z,17.97
2018-11-14T07:58:35.482Z,12.65
2018-11-14T08:01:03.647Z,13.75
2018-11-14T08:03:31.829Z,11.47
2018-11-14T08:06:00.051Z,12.23
2018-11-14T08:08:28.258Z,11.90
2018-11-14T08:10:56.401Z,12.35
2018-11-14T08:13:26.669Z,12.43
2018-11-14T08:15:56.572Z,12.53
2018-11-14T08:18:25.064Z,12.93
2018-11-14T08:20:53.382Z,12.97
2018-11-14T08:23:21.529Z,12.70
2018-11-14T08:25:49.793Z,13.60
2018-11-14T08:28:18.289Z,16.93
2018-11-14T08:30:46.888Z,16.90
2018-11-14T08:33:14.931Z,14.13
2018-11-14T08:35:43.113Z,16.40
2018-11-14T08:38:11.669Z,25.47
2018-11-14T08:40:41.355Z,15.73
2018-11-14T08:43:09.530Z,17.53
2018-11-14T08:45:37.750Z,16.67
2018-11-14T08:48:06.209Z,18.20
2018-11-14T08:50:34.413Z,16.90
2018-11-14T08:53:02.721Z,17.73
2018-11-14T08:55:30.901Z,18.63
2018-11-14T08:57:59.077Z,25.77
2018-11-14T09:00:28.004Z,37.03
2018-11-14T09:02:56.189Z,34.50
2018-11-14T09:05:24.391Z,40.17
2018-11-14T09:07:52.659Z,36.23
2018-11-14T09:10:21.993Z,26.63
2018-11-14T09:12:50.167Z,36.63
2018-11-14T09:15:19.469Z,42.63
2018-11-14T09:17:47.729Z,43.10
2018-11-14T09:20:18.083Z,47.23
2018-11-14T09:22:46.491Z,41.03
2018-11-14T09:25:16.682Z,54.20
2018-11-14T09:27:45.466Z,40.07
2018-11-14T09:30:19.601Z,41.47
2018-11-14T09:32:48.275Z,42.37
2018-11-14T09:35:17.830Z,42.40
2018-11-14T09:37:45.985Z,40.70
2018-11-14T09:40:15.773Z,43.60
2018-11-14T09:42:43.954Z,42.00
2018-11-14T09:45:14.481Z,42.97
2018-11-14T09:47:42.826Z,41.00
2018-11-14T09:50:13.890Z,40.37
2018-11-14T09:52:42.570Z,37.83
2018-11-14T09:55:11.444Z,35.83
2018-11-14T09:57:40.349Z,25.90
2018-11-14T10:00:14.470Z,32.97
2018-11-14T10:02:43.213Z,29.77
2018-11-14T10:05:13.889Z,27.07
2018-11-14T10:07:44.149Z,31.10
2018-11-14T10:10:13.689Z,37.13
2018-11-14T10:12:41.877Z,37.17
2018-11-14T10:15:12.525Z,33.70
2018-11-14T10:17:41.280Z,40.30
2018-11-14T10:20:11.505Z,42.87
2018-11-14T10:22:40.293Z,44.63
2018-11-14T10:25:08.814Z,46.53
2018-11-14T10:27:37.778Z,41.03
2018-11-14T10:30:08.800Z,36.80
2018-11-14T10:32:37.371Z,37.33
2018-11-14T10:35:06.596Z,39.77
2018-11-14T10:37:34.777Z,40.20
2018-11-14T10:40:02.942Z,38.57
2018-11-14T10:42:31.136Z,32.20
2018-11-14T10:44:59.372Z,37.63
2018-11-14T10:47:27.556Z,31.70
2018-11-14T10:49:59.456Z,40.67
2018-11-14T10:52:27.630Z,35.67
2018-11-14T10:54:55.781Z,37.30
2018-11-14T10:57:23.981Z,32.30
2018-11-14T10:59:52.231Z,34.13
2018-11-14T11:02:25.809Z,31.53
2018-11-14T11:04:59.342Z,27.63
2018-11-14T11:07:32.942Z,28.40
2018-11-14T11:10:09.251Z,28.60
2018-11-14T11:12:42.874Z,29.90
2018-11-14T11:15:16.445Z,33.20
2018-11-14T11:17:50.125Z,36.27
2018-11-14T11:20:19.089Z,34.73
2018-11-14T11:22:47.262Z,33.80
2018-11-14T11:25:18.123Z,33.20
2018-11-14T11:27:46.306Z,31.37
2018-11-14T11:30:14.457Z,44.03
2018-11-14T11:32:42.671Z,43.40
2018-11-14T11:35:12.773Z,41.87
2018-11-14T11:37:40.932Z,45.70
2018-11-14T11:40:09.469Z,43.63
2018-11-14T11:42:37.621Z,45.13
2018-11-14T11:45:06.419Z,49.07
2018-11-14T11:47:34.597Z,46.57
2018-11-14T11:50:06.329Z,52.13
2018-11-14T11:52:34.527Z,55.50
2018-11-14T11:55:02.684Z,58.07
2018-11-14T11:57:31.029Z,56.63
2018-11-14T11:59:59.219Z,51.37
2018-11-14T12:02:27.311Z,54.50
2018-11-14T12:04:55.455Z,55.17
2018-11-14T12:07:23.609Z,56.17
2018-11-14T12:09:51.774Z,54.40
2018-11-14T12:12:20.005Z,47.07
2018-11-14T12:14:48.233Z,46.70
2018-11-14T12:17:16.433Z,42.80
2018-11-14T12:19:44.890Z,43.33
2018-11-14T12:22:13.090Z,45.87
2018-11-14T12:24:42.185Z,39.33
2018-11-14T12:27:13.142Z,39.83
2018-11-14T12:29:42.527Z,41.57
2018-11-14T12:32:10.696Z,40.97
2018-11-14T12:34:38.999Z,40.90
2018-11-14T12:37:07.106Z,45.87
2018-11-14T12:39:35.342Z,38.50
2018-11-14T12:42:03.489Z,43.20
2018-11-14T12:44:31.683Z,40.33
2018-11-14T12:46:59.856Z,39.80
2018-11-14T12:49:28.243Z,40.13
2018-11-14T12:51:56.398Z,42.50
2018-11-14T12:54:24.560Z,37.90
2018-11-14T12:56:52.766Z,37.73
2018-11-14T12:59:20.984Z,41.97
2018-11-14T13:01:49.121Z,36.17
2018-11-14T13:04:17.270Z,37.17
2018-11-14T13:06:45.449Z,41.57
2018-11-14T13:09:13.720Z,32.17
2018-11-14T13:11:41.882Z,39.80
2018-11-14T13:14:10.046Z,35.40
2018-11-14T13:16:38.157Z,34.13
2018-11-14T13:19:06.317Z,38.33
2018-11-14T13:21:34.485Z,29.50
2018-11-14T13:24:02.657Z,34.10
2018-11-14T13:26:30.825Z,39.17
2018-11-14T13:28:59.254Z,37.13
2018-11-14T13:31:27.391Z,36.83
2018-11-14T13:33:55.540Z,30.50
2018-11-14T13:36:23.721Z,33.00
2018-11-14T13:38:51.882Z,32.30
2018-11-14T13:41:19.995Z,31.93
2018-11-14T13:43:48.158Z,34.00
2018-11-14T13:46:16.313Z,26.07
2018-11-14T13:48:44.495Z,24.50
2018-11-14T13:51:12.933Z,29.43
2018-11-14T13:53:40.854Z,31.00
2018-11-14T13:56:09.006Z,33.77
2018-11-14T13:58:37.158Z,32.27
2018-11-14T14:01:05.381Z,31.40
2018-11-14T14:03:33.530Z,35.00
2018-11-14T14:06:01.716Z,30.97
2018-11-14T14:08:29.944Z,34.97
2018-11-14T14:10:58.081Z,35.70
2018-11-14T14:13:26.253Z,35.87
2018-11-14T14:15:54.429Z,35.43
2018-11-14T14:18:22.573Z,37.93
2018-11-14T14:20:50.771Z,37.07
2018-11-14T14:23:19.065Z,37.00
2018-11-14T14:25:47.218Z,35.17
2018-11-14T14:28:15.401Z,34.73
2018-11-14T14:30:43.623Z,32.43
2018-11-14T14:33:11.778Z,29.50
2018-11-14T14:35:39.933Z,30.93
2018-11-14T14:38:08.155Z,33.70
2018-11-14T14:40:42.728Z,27.93
2018-11-14T14:43:10.912Z,29.10
2018-11-14T14:45:39.244Z,30.83
2018-11-14T14:48:07.626Z,30.63
2018-11-14T14:50:35.772Z,27.27
2018-11-14T14:53:03.965Z,32.33
2018-11-14T14:55:32.135Z,33.43
2018-11-14T14:58:00.301Z,35.00
2018-11-14T15:00:28.793Z,29.00
2018-11-14T15:02:57.109Z,32.03
2018-11-14T15:05:25.628Z,31.00
2018-11-14T15:07:53.789Z,29.17
2018-11-14T15:10:23.270Z,27.97
2018-11-14T15:12:51.397Z,27.17
2018-11-14T15:15:20.060Z,28.73
2018-11-14T15:17:48.458Z,29.87
2018-11-14T15:20:18.873Z,28.90
2018-11-14T15:22:47.074Z,26.13
2018-11-14T15:25:16.769Z,27.00
2018-11-14T15:27:45.552Z,28.20
2018-11-14T15:30:16.698Z,30.03
2018-11-14T15:32:44.847Z,28.87
2018-11-14T15:35:13.581Z,27.40
2018-11-14T15:37:41.682Z,25.20
2018-11-14T15:40:11.965Z,28.00
2018-11-14T15:42:40.153Z,28.70
2018-11-14T15:45:11.623Z,26.90
2018-11-14T15:47:39.845Z,28.00
2018-11-14T15:50:11.189Z,25.60
2018-11-14T15:52:39.589Z,25.33
2018-11-14T15:55:10.199Z,26.00
2018-11-14T15:57:39.371Z,27.20
2018-11-14T16:00:22.619Z,26.50
2018-11-14T16:02:51.148Z,27.73
2018-11-14T16:05:22.948Z,23.60
2018-11-14T16:07:52.386Z,31.10
2018-11-14T16:10:40.564Z,31.27
2018-11-14T16:13:09.545Z,26.70
2018-11-14T16:15:37.961Z,28.83
2018-11-14T16:18:06.269Z,27.63
2018-11-14T16:20:34.479Z,22.50
2018-11-14T16:23:02.642Z,26.90
2018-11-14T16:25:31.483Z,27.70
2018-11-14T16:28:00.881Z,22.83
2018-11-14T16:30:32.243Z,24.93
2018-11-14T16:33:02.880Z,25.97
2018-11-14T16:35:31.187Z,25.70
2018-11-14T16:37:59.398Z,27.17
2018-11-14T16:40:29.802Z,27.00
2018-11-14T16:42:59.009Z,20.27
2018-11-14T16:45:27.358Z,29.60
2018-11-14T16:47:55.613Z,25.23
2018-11-14T16:50:24.194Z,25.83
2018-11-14T16:52:52.414Z,29.07
2018-11-14T16:55:21.575Z,27.83
2018-11-14T16:57:53.700Z,26.70
2018-11-14T17:00:23.209Z,24.23
2018-11-14T17:02:51.444Z,24.47
2018-11-14T17:05:20.220Z,25.80
2018-11-14T17:07:48.584Z,23.23
2018-11-14T17:10:18.273Z,26.30
2018-11-14T17:12:47.365Z,24.70
2018-11-14T17:15:17.142Z,23.33
2018-11-14T17:17:45.261Z,22.30
2018-11-14T17:20:14.682Z,22.30
2018-11-14T17:22:43.352Z,21.57
2018-11-14T17:25:12.452Z,19.90
2018-11-14T17:27:41.129Z,24.13
2018-11-14T17:30:12.576Z,21.13
2018-11-14T17:32:40.946Z,16.70
2018-11-14T17:35:10.137Z,22.73
2018-11-14T17:37:39.038Z,21.23
2018-11-14T17:40:09.993Z,18.97
2018-11-14T17:42:38.682Z,20.57
2018-11-14T17:45:09.184Z,19.23
2018-11-14T17:47:37.651Z,23.37
2018-11-14T17:50:09.622Z,19.37
2018-11-14T17:52:37.785Z,26.30
2018-11-14T17:55:08.642Z,21.53
2018-11-14T17:57:36.883Z,24.07
2018-11-14T18:00:06.714Z,19.30
2018-11-14T18:02:34.921Z,18.93
2018-11-14T18:05:03.061Z,20.00
2018-11-14T18:07:31.233Z,25.43
2018-11-14T18:09:59.374Z,22.90
2018-11-14T18:12:27.621Z,20.67
2018-11-14T18:14:55.998Z,24.30
2018-11-14T18:17:24.159Z,24.60
2018-11-14T18:19:52.385Z,24.20
2018-11-14T18:22:20.538Z,23.50
2018-11-14T18:24:48.729Z,24.33
2018-11-14T18:27:16.933Z,26.33
2018-11-14T18:29:45.078Z,22.00
2018-11-14T18:32:13.282Z,26.67
2018-11-14T18:34:41.467Z,23.67
2018-11-14T18:37:09.646Z,24.70
2018-11-14T18:39:37.982Z,24.20
2018-11-14T18:42:06.039Z,27.80
2018-11-14T18:44:34.219Z,25.30
2018-11-14T18:47:02.404Z,24.70
2018-11-14T18:49:30.605Z,25.97
2018-11-14T18:51:58.986Z,25.33
2018-11-14T18:54:27.106Z,22.77
2018-11-14T18:56:55.306Z,27.37
2018-11-14T18:59:23.470Z,28.17
2018-11-14T19:01:51.732Z,26.30
2018-11-14T19:04:19.953Z,27.67
2018-11-14T19:06:48.922Z,26.27
2018-11-14T19:09:17.013Z,29.00
2018-11-14T19:11:45.201Z,34.07
2018-11-14T19:14:13.458Z,26.00
2018-11-14T19:16:41.604Z,28.97
2018-11-14T19:19:09.861Z,31.10
2018-11-14T19:21:38.286Z,27.07
2018-11-14T19:24:06.490Z,32.70
2018-11-14T19:26:34.734Z,30.70
2018-11-14T19:29:03.006Z,30.67
2018-11-14T19:31:31.186Z,32.93
2018-11-14T19:33:59.450Z,40.90
2018-11-14T19:36:29.494Z,34.23
2018-11-14T19:38:57.697Z,35.00
2018-11-14T19:41:25.905Z,32.07
2018-11-14T19:43:54.061Z,32.40
2018-11-14T19:46:22.270Z,34.63
2018-11-14T19:48:50.679Z,42.23
2018-11-14T19:51:18.853Z,33.73
2018-11-14T19:53:47.047Z,31.87
2018-11-14T19:56:15.249Z,34.23
2018-11-14T19:58:43.429Z,39.80
2018-11-14T20:01:11.629Z,34.13
2018-11-14T20:03:39.777Z,40.90
2018-11-14T20:09:08.350Z,40.10
2018-11-14T20:11:36.513Z,37.60
2018-11-14T20:14:04.726Z,32.67
2018-11-14T20:16:33.002Z,33.57
2018-11-14T20:19:01.215Z,30.00
2018-11-14T20:21:29.373Z,30.20
2018-11-14T20:23:57.605Z,36.10
2018-11-14T20:26:25.737Z,35.50
2018-11-14T20:28:53.850Z,31.30
2018-11-14T20:31:22.082Z,26.63
2018-11-14T20:33:50.177Z,29.53
2018-11-14T20:36:18.545Z,29.23
2018-11-14T20:38:46.701Z,24.77
2018-11-14T20:41:14.887Z,29.83
2018-11-14T20:43:43.385Z,28.13
2018-11-14T20:46:11.585Z,24.17
2018-11-14T20:48:39.788Z,28.43
2018-11-14T20:51:07.950Z,30.40
2018-11-14T20:53:36.117Z,29.57
2018-11-14T20:56:04.269Z,28.47
2018-11-14T20:58:32.434Z,27.00
2018-11-14T21:01:00.595Z,34.20
2018-11-14T21:03:28.786Z,28.70
2018-11-14T21:05:56.958Z,29.63
2018-11-14T21:08:25.096Z,28.70
2018-11-14T21:10:53.258Z,27.30
2018-11-14T21:13:21.466Z,22.50
2018-11-14T21:15:49.621Z,25.33
2018-11-14T21:18:17.806Z,26.27
2018-11-14T21:20:45.967Z,25.40
2018-11-14T21:23:14.338Z,25.43
2018-11-14T21:25:42.473Z,26.87
2018-11-14T21:28:10.629Z,28.93
2018-11-14T21:30:38.785Z,27.80
2018-11-14T21:33:06.945Z,31.17
2018-11-14T21:35:36.257Z,24.00
2018-11-14T21:38:05.944Z,24.30
2018-11-14T21:40:34.062Z,29.17
2018-11-14T21:43:02.247Z,27.73
2018-11-14T21:45:30.793Z,24.27
2018-11-14T21:48:04.413Z,28.50
2018-11-14T21:50:33.077Z,34.83
2018-11-14T21:53:01.301Z,28.90
2018-11-14T21:55:29.446Z,26.57
2018-11-14T21:57:57.653Z,33.63
2018-11-14T22:00:40.817Z,30.10
2018-11-14T22:03:09.829Z,31.20
2018-11-14T22:05:38.317Z,29.50
2018-11-14T22:08:06.493Z,31.90
2018-11-14T22:10:34.645Z,29.30
2018-11-14T22:13:02.773Z,31.47
2018-11-14T22:15:31.438Z,28.63
2018-11-14T22:17:59.596Z,29.17
2018-11-14T22:20:28.252Z,35.63
2018-11-14T22:22:56.407Z,32.70
2018-11-14T22:25:25.537Z,37.67
2018-11-14T22:27:53.717Z,35.47
2018-11-14T22:30:25.362Z,32.80
2018-11-14T22:32:53.530Z,30.47
2018-11-14T22:35:23.149Z,29.47
2018-11-14T22:37:51.207Z,29.87
2018-11-14T22:40:20.776Z,26.13
2018-11-14T22:42:48.949Z,32.07
2018-11-14T22:45:19.417Z,30.10
2018-11-14T22:47:48.018Z,27.37
2018-11-14T22:50:17.612Z,28.63
2018-11-14T22:52:46.310Z,27.27
2018-11-14T22:55:15.578Z,26.80
2018-11-14T22:57:44.446Z,29.77
2018-11-14T23:00:18.868Z,27.13
2018-11-14T23:02:48.297Z,31.80
2018-11-14T23:05:16.790Z,27.90
2018-11-14T23:07:45.274Z,30.60
2018-11-14T23:10:13.445Z,28.07
2018-11-14T23:12:41.607Z,28.63
2018-11-14T23:15:10.094Z,27.27
2018-11-14T23:17:38.367Z,29.03
2018-11-14T23:20:09.449Z,28.70
2018-11-14T23:22:37.897Z,28.73
2018-11-14T23:25:06.566Z,29.33
2018-11-14T23:27:34.737Z,30.27
2018-11-14T23:30:02.897Z,28.80
2018-11-14T23:32:31.196Z,33.87
2018-11-14T23:35:04.774Z,35.60
2018-11-14T23:37:32.954Z,36.10
2018-11-14T23:40:01.126Z,36.87
2018-11-14T23:42:29.289Z,36.30
2018-11-14T23:44:57.485Z,38.43
2018-11-14T23:47:25.633Z,36.97
2018-11-14T23:49:53.841Z,34.80
2018-11-14T23:52:21.997Z,33.00
2018-11-14T23:54:50.269Z,35.67
2018-11-14T23:57:18.449Z,30.03
2018-11-14T23:59:46.618Z,37.37
